sensor_id;sensor_type;location;lat;lon;timestamp;temperature;humidity
1800;DHT22;919;48.274;12.292;2022-10-17T00:01:33;11.00;99.90
1800;DHT22;919;48.274;12.292;2022-10-17T00:04:00;11.00;99.90
1800;DHT22;919;48.274;12.292;2022-10-17T00:06:27;11.10;99.90
1800;DHT22;919;48.274;12.292;2022-10-17T00:08:54;11.10;99.90
1800;DHT22;919;48.274;12.292;2022-10-17T00:11:23;11.00;99.90
1800;DHT22;919;48.274;12.292;2022-10-17T00:13:50;11.00;99.90
1800;DHT22;919;48.274;12.292;2022-10-17T00:16:23;11.10;99.90
1800;DHT22;919;48.274;12.292;2022-10-17T00:18:50;11.10;99.90
1800;DHT22;919;48.274;12.292;2022-10-17T00:21:18;11.10;99.90
1800;DHT22;919;48.274;12.292;2022-10-17T00:23:46;11.10;99.90
1800;DHT22;919;48.274;12.292;2022-10-17T00:26:13;11.10;99.90
1800;DHT22;919;48.274;12.292;2022-10-17T00:28:41;11.10;99.90
1800;DHT22;919;48.274;12.292;2022-10-17T00:31:08;11.10;99.90
1800;DHT22;919;48.274;12.292;2022-10-17T00:33:35;11.00;99.90
1800;DHT22;919;48.274;12.292;2022-10-17T00:36:04;11.10;99.90
1800;DHT22;919;48.274;12.292;2022-10-17T00:38:31;11.10;99.90
1800;DHT22;919;48.274;12.292;2022-10-17T00:40:58;11.00;99.90
1800;DHT22;919;48.274;12.292;2022-10-17T00:43:25;11.00;99.90
1800;DHT22;919;48.274;12.292;2022-10-17T00:45:55;11.10;99.90
1800;DHT22;919;48.274;12.292;2022-10-17T00:48:23;11.00;99.90
1800;DHT22;919;48.274;12.292;2022-10-17T00:50:51;11.00;99.90
1800;DHT22;919;48.274;12.292;2022-10-17T00:53:18;10.90;99.90
1800;DHT22;919;48.274;12.292;2022-10-17T00:55:49;11.00;99.90
1800;DHT22;919;48.274;12.292;2022-10-17T00:58:17;11.00;99.90
1800;DHT22;919;48.274;12.292;2022-10-17T01:00:45;11.00;99.90
1800;DHT22;919;48.274;12.292;2022-10-17T01:03:14;11.00;99.90
1800;DHT22;919;48.274;12.292;2022-10-17T01:05:41;11.00;99.90
1800;DHT22;919;48.274;12.292;2022-10-17T01:08:08;11.00;99.90
1800;DHT22;919;48.274;12.292;2022-10-17T01:10:46;11.00;99.90
1800;DHT22;919;48.274;12.292;2022-10-17T01:13:18;11.00;99.90
1800;DHT22;919;48.274;12.292;2022-10-17T01:15:55;10.90;99.90
1800;DHT22;919;48.274;12.292;2022-10-17T01:18:36;10.90;99.90
1800;DHT22;919;48.274;12.292;2022-10-17T01:21:22;11.00;99.90
1800;DHT22;919;48.274;12.292;2022-10-17T01:24:10;11.00;99.90
1800;DHT22;919;48.274;12.292;2022-10-17T01:27:04;11.10;99.90
1800;DHT22;919;48.274;12.292;2022-10-17T01:29:50;11.10;99.90
1800;DHT22;919;48.274;12.292;2022-10-17T01:32:22;11.10;99.90
1800;DHT22;919;48.274;12.292;2022-10-17T01:34:54;11.20;99.90
1800;DHT22;919;48.274;12.292;2022-10-17T01:37:27;11.30;99.90
1800;DHT22;919;48.274;12.292;2022-10-17T01:40:02;11.30;99.90
1800;DHT22;919;48.274;12.292;2022-10-17T01:42:36;11.40;99.90
1800;DHT22;919;48.274;12.292;2022-10-17T01:45:08;11.40;99.90
1800;DHT22;919;48.274;12.292;2022-10-17T01:47:39;11.30;99.90
1800;DHT22;919;48.274;12.292;2022-10-17T01:50:11;11.30;99.90
1800;DHT22;919;48.274;12.292;2022-10-17T01:52:43;11.30;99.90
1800;DHT22;919;48.274;12.292;2022-10-17T01:55:14;11.30;99.90
1800;DHT22;919;48.274;12.292;2022-10-17T01:58:00;11.30;99.90
1800;DHT22;919;48.274;12.292;2022-10-17T02:00:29;11.20;99.90
1800;DHT22;919;48.274;12.292;2022-10-17T02:03:00;11.30;99.90
1800;DHT22;919;48.274;12.292;2022-10-17T02:05:30;11.40;99.90
1800;DHT22;919;48.274;12.292;2022-10-17T02:07:59;11.30;99.90
1800;DHT22;919;48.274;12.292;2022-10-17T02:10:31;11.20;99.90
1800;DHT22;919;48.274;12.292;2022-10-17T02:13:05;11.20;99.90
1800;DHT22;919;48.274;12.292;2022-10-17T02:15:46;11.20;99.90
1800;DHT22;919;48.274;12.292;2022-10-17T02:18:38;11.10;99.90
1800;DHT22;919;48.274;12.292;2022-10-17T02:21:12;11.10;99.90
1800;DHT22;919;48.274;12.292;2022-10-17T02:23:47;10.90;99.90
1800;DHT22;919;48.274;12.292;2022-10-17T02:26:20;11.00;99.90
1800;DHT22;919;48.274;12.292;2022-10-17T02:29:01;11.00;99.90
1800;DHT22;919;48.274;12.292;2022-10-17T02:31:33;11.00;99.90
1800;DHT22;919;48.274;12.292;2022-10-17T02:34:07;11.00;99.90
1800;DHT22;919;48.274;12.292;2022-10-17T02:36:39;11.00;99.90
1800;DHT22;919;48.274;12.292;2022-10-17T02:39:07;11.10;99.90
1800;DHT22;919;48.274;12.292;2022-10-17T02:41:36;11.10;99.90
1800;DHT22;919;48.274;12.292;2022-10-17T02:44:05;11.20;99.90
1800;DHT22;919;48.274;12.292;2022-10-17T02:46:33;11.20;99.90
1800;DHT22;919;48.274;12.292;2022-10-17T02:49:04;11.20;99.90
1800;DHT22;919;48.274;12.292;2022-10-17T02:51:37;11.20;99.90
1800;DHT22;919;48.274;12.292;2022-10-17T02:54:12;11.20;99.90
1800;DHT22;919;48.274;12.292;2022-10-17T02:56:43;11.30;99.90
1800;DHT22;919;48.274;12.292;2022-10-17T02:59:13;11.30;99.90
1800;DHT22;919;48.274;12.292;2022-10-17T03:01:41;11.40;99.90
1800;DHT22;919;48.274;12.292;2022-10-17T03:04:12;11.50;99.90
1800;DHT22;919;48.274;12.292;2022-10-17T03:06:39;11.50;99.90
1800;DHT22;919;48.274;12.292;2022-10-17T03:09:08;11.50;99.90
1800;DHT22;919;48.274;12.292;2022-10-17T03:11:34;11.50;99.90
1800;DHT22;919;48.274;12.292;2022-10-17T03:14:01;11.50;99.90
1800;DHT22;919;48.274;12.292;2022-10-17T03:16:28;11.50;99.90
1800;DHT22;919;48.274;12.292;2022-10-17T03:18:55;11.40;99.90
1800;DHT22;919;48.274;12.292;2022-10-17T03:21:23;11.40;99.90
1800;DHT22;919;48.274;12.292;2022-10-17T03:23:50;11.40;99.90
1800;DHT22;919;48.274;12.292;2022-10-17T03:26:17;11.40;99.90
1800;DHT22;919;48.274;12.292;2022-10-17T03:28:44;11.50;99.90
1800;DHT22;919;48.274;12.292;2022-10-17T03:31:14;11.50;99.90
1800;DHT22;919;48.274;12.292;2022-10-17T03:33:41;11.60;99.90
1800;DHT22;919;48.274;12.292;2022-10-17T03:36:09;11.70;99.90
1800;DHT22;919;48.274;12.292;2022-10-17T03:38:38;11.70;99.90
1800;DHT22;919;48.274;12.292;2022-10-17T03:41:05;11.70;99.90
1800;DHT22;919;48.274;12.292;2022-10-17T03:43:32;11.70;99.90
1800;DHT22;919;48.274;12.292;2022-10-17T03:45:59;11.70;99.90
1800;DHT22;919;48.274;12.292;2022-10-17T03:48:27;11.70;99.90
1800;DHT22;919;48.274;12.292;2022-10-17T03:50:58;11.70;99.90
1800;DHT22;919;48.274;12.292;2022-10-17T03:53:25;11.80;99.90
1800;DHT22;919;48.274;12.292;2022-10-17T03:55:54;11.80;99.90
1800;DHT22;919;48.274;12.292;2022-10-17T03:58:20;11.80;99.90
1800;DHT22;919;48.274;12.292;2022-10-17T04:00:47;11.80;99.90
1800;DHT22;919;48.274;12.292;2022-10-17T04:03:14;11.80;99.90
1800;DHT22;919;48.274;12.292;2022-10-17T04:05:41;11.90;99.90
1800;DHT22;919;48.274;12.292;2022-10-17T04:08:08;11.90;99.90
1800;DHT22;919;48.274;12.292;2022-10-17T04:10:34;11.90;99.90
1800;DHT22;919;48.274;12.292;2022-10-17T04:13:02;11.90;99.90
1800;DHT22;919;48.274;12.292;2022-10-17T04:15:30;12.00;99.90
1800;DHT22;919;48.274;12.292;2022-10-17T04:17:57;12.00;99.90
1800;DHT22;919;48.274;12.292;2022-10-17T04:20:24;12.00;99.90
1800;DHT22;919;48.274;12.292;2022-10-17T04:22:51;12.00;99.90
1800;DHT22;919;48.274;12.292;2022-10-17T04:25:18;12.00;99.90
1800;DHT22;919;48.274;12.292;2022-10-17T04:27:44;12.00;99.90
1800;DHT22;919;48.274;12.292;2022-10-17T04:30:15;11.90;99.90
1800;DHT22;919;48.274;12.292;2022-10-17T04:32:42;11.90;99.90
1800;DHT22;919;48.274;12.292;2022-10-17T04:35:08;11.90;99.90
1800;DHT22;919;48.274;12.292;2022-10-17T04:37:35;11.90;99.90
1800;DHT22;919;48.274;12.292;2022-10-17T04:40:03;12.00;99.90
1800;DHT22;919;48.274;12.292;2022-10-17T04:42:30;12.00;99.90
1800;DHT22;919;48.274;12.292;2022-10-17T04:44:56;12.00;99.90
1800;DHT22;919;48.274;12.292;2022-10-17T04:47:25;12.00;99.90
1800;DHT22;919;48.274;12.292;2022-10-17T04:49:51;12.00;99.90
1800;DHT22;919;48.274;12.292;2022-10-17T04:52:18;12.00;99.90
1800;DHT22;919;48.274;12.292;2022-10-17T04:54:45;12.00;99.90
1800;DHT22;919;48.274;12.292;2022-10-17T04:57:12;12.00;99.90
1800;DHT22;919;48.274;12.292;2022-10-17T04:59:39;12.00;99.90
1800;DHT22;919;48.274;12.292;2022-10-17T05:02:06;12.00;99.90
1800;DHT22;919;48.274;12.292;2022-10-17T05:04:34;11.90;99.90
1800;DHT22;919;48.274;12.292;2022-10-17T05:07:01;11.90;99.90
1800;DHT22;919;48.274;12.292;2022-10-17T05:09:28;11.90;99.90
1800;DHT22;919;48.274;12.292;2022-10-17T05:11:55;11.90;99.90
1800;DHT22;919;48.274;12.292;2022-10-17T05:14:24;11.90;99.90
1800;DHT22;919;48.274;12.292;2022-10-17T05:16:51;11.80;99.90
1800;DHT22;919;48.274;12.292;2022-10-17T05:19:18;11.80;99.90
1800;DHT22;919;48.274;12.292;2022-10-17T05:21:46;11.70;99.90
1800;DHT22;919;48.274;12.292;2022-10-17T05:24:13;11.70;99.90
1800;DHT22;919;48.274;12.292;2022-10-17T05:26:40;11.80;99.90
1800;DHT22;919;48.274;12.292;2022-10-17T05:29:07;11.80;99.90
1800;DHT22;919;48.274;12.292;2022-10-17T05:31:34;11.70;99.90
1800;DHT22;919;48.274;12.292;2022-10-17T05:34:02;11.70;99.90
1800;DHT22;919;48.274;12.292;2022-10-17T05:36:29;11.70;99.90
1800;DHT22;919;48.274;12.292;2022-10-17T05:38:57;11.70;99.90
1800;DHT22;919;48.274;12.292;2022-10-17T05:41:24;11.70;99.90
1800;DHT22;919;48.274;12.292;2022-10-17T05:43:50;11.60;99.90
1800;DHT22;919;48.274;12.292;2022-10-17T05:46:17;11.60;99.90
1800;DHT22;919;48.274;12.292;2022-10-17T05:48:44;11.60;99.90
1800;DHT22;919;48.274;12.292;2022-10-17T05:51:11;11.60;99.90
1800;DHT22;919;48.274;12.292;2022-10-17T05:53:40;11.60;99.90
1800;DHT22;919;48.274;12.292;2022-10-17T05:56:10;11.50;99.90
1800;DHT22;919;48.274;12.292;2022-10-17T05:58:39;11.50;99.90
1800;DHT22;919;48.274;12.292;2022-10-17T06:01:06;11.50;99.90
1800;DHT22;919;48.274;12.292;2022-10-17T06:03:33;11.50;99.90
1800;DHT22;919;48.274;12.292;2022-10-17T06:06:04;11.40;99.90
1800;DHT22;919;48.274;12.292;2022-10-17T06:08:31;11.40;99.90
1800;DHT22;919;48.274;12.292;2022-10-17T06:10:58;11.40;99.90
1800;DHT22;919;48.274;12.292;2022-10-17T06:13:26;11.50;99.90
1800;DHT22;919;48.274;12.292;2022-10-17T06:15:53;11.50;99.90
1800;DHT22;919;48.274;12.292;2022-10-17T06:18:20;11.50;99.90
1800;DHT22;919;48.274;12.292;2022-10-17T06:20:47;11.50;99.90
1800;DHT22;919;48.274;12.292;2022-10-17T06:23:14;11.50;99.90
1800;DHT22;919;48.274;12.292;2022-10-17T06:25:40;11.50;99.90
1800;DHT22;919;48.274;12.292;2022-10-17T06:28:07;11.50;99.90
1800;DHT22;919;48.274;12.292;2022-10-17T06:30:38;11.50;99.90
1800;DHT22;919;48.274;12.292;2022-10-17T06:33:05;11.50;99.90
1800;DHT22;919;48.274;12.292;2022-10-17T06:35:31;11.60;99.90
1800;DHT22;919;48.274;12.292;2022-10-17T06:37:58;11.60;99.90
1800;DHT22;919;48.274;12.292;2022-10-17T06:40:25;11.50;99.90
1800;DHT22;919;48.274;12.292;2022-10-17T06:42:52;11.50;99.90
1800;DHT22;919;48.274;12.292;2022-10-17T06:45:19;11.60;99.90
1800;DHT22;919;48.274;12.292;2022-10-17T06:47:47;11.60;99.90
1800;DHT22;919;48.274;12.292;2022-10-17T06:50:14;11.60;99.90
1800;DHT22;919;48.274;12.292;2022-10-17T06:52:41;11.60;99.90
1800;DHT22;919;48.274;12.292;2022-10-17T06:55:08;11.70;99.90
1800;DHT22;919;48.274;12.292;2022-10-17T06:57:35;11.80;99.90
1800;DHT22;919;48.274;12.292;2022-10-17T07:00:03;11.90;99.90
1800;DHT22;919;48.274;12.292;2022-10-17T07:02:30;11.90;99.90
1800;DHT22;919;48.274;12.292;2022-10-17T07:04:58;11.90;99.90
1800;DHT22;919;48.274;12.292;2022-10-17T07:07:25;11.90;99.90
1800;DHT22;919;48.274;12.292;2022-10-17T07:09:52;11.80;99.90
1800;DHT22;919;48.274;12.292;2022-10-17T07:12:19;11.80;99.90
1800;DHT22;919;48.274;12.292;2022-10-17T07:14:45;11.70;99.90
1800;DHT22;919;48.274;12.292;2022-10-17T07:17:14;11.80;99.90
1800;DHT22;919;48.274;12.292;2022-10-17T07:19:41;11.90;99.90
1800;DHT22;919;48.274;12.292;2022-10-17T07:22:11;12.00;99.90
1800;DHT22;919;48.274;12.292;2022-10-17T07:24:38;12.00;99.90
1800;DHT22;919;48.274;12.292;2022-10-17T07:27:05;12.10;99.90
1800;DHT22;919;48.274;12.292;2022-10-17T07:29:31;12.10;99.90
1800;DHT22;919;48.274;12.292;2022-10-17T07:31:58;12.20;99.90
1800;DHT22;919;48.274;12.292;2022-10-17T07:34:25;12.30;99.90
1800;DHT22;919;48.274;12.292;2022-10-17T07:36:55;12.50;99.90
1800;DHT22;919;48.274;12.292;2022-10-17T07:39:23;12.50;99.90
1800;DHT22;919;48.274;12.292;2022-10-17T07:41:50;12.50;99.90
1800;DHT22;919;48.274;12.292;2022-10-17T07:44:17;12.40;99.90
1800;DHT22;919;48.274;12.292;2022-10-17T07:46:44;12.30;99.90
1800;DHT22;919;48.274;12.292;2022-10-17T07:49:10;12.40;99.90
1800;DHT22;919;48.274;12.292;2022-10-17T07:51:37;12.40;99.90
1800;DHT22;919;48.274;12.292;2022-10-17T07:54:04;12.50;99.90
1800;DHT22;919;48.274;12.292;2022-10-17T07:56:33;12.60;99.90
1800;DHT22;919;48.274;12.292;2022-10-17T07:58:59;12.70;99.90
1800;DHT22;919;48.274;12.292;2022-10-17T08:01:26;12.90;99.90
1800;DHT22;919;48.274;12.292;2022-10-17T08:03:53;13.00;99.90
1800;DHT22;919;48.274;12.292;2022-10-17T08:06:20;13.10;99.90
1800;DHT22;919;48.274;12.292;2022-10-17T08:08:47;13.20;99.90
1800;DHT22;919;48.274;12.292;2022-10-17T08:11:15;13.30;99.90
1800;DHT22;919;48.274;12.292;2022-10-17T08:13:43;13.30;99.90
1800;DHT22;919;48.274;12.292;2022-10-17T08:16:11;13.30;99.90
1800;DHT22;919;48.274;12.292;2022-10-17T08:18:39;13.30;99.90
1800;DHT22;919;48.274;12.292;2022-10-17T08:21:06;13.20;99.90
1800;DHT22;919;48.274;12.292;2022-10-17T08:23:34;13.20;99.90
1800;DHT22;919;48.274;12.292;2022-10-17T08:26:03;13.40;99.90
1800;DHT22;919;48.274;12.292;2022-10-17T08:28:33;13.50;99.90
1800;DHT22;919;48.274;12.292;2022-10-17T08:31:03;13.50;99.90
1800;DHT22;919;48.274;12.292;2022-10-17T08:33:30;13.50;99.90
1800;DHT22;919;48.274;12.292;2022-10-17T08:35:58;13.60;99.90
1800;DHT22;919;48.274;12.292;2022-10-17T08:38:25;13.70;99.90
1800;DHT22;919;48.274;12.292;2022-10-17T08:40:52;13.80;99.90
1800;DHT22;919;48.274;12.292;2022-10-17T08:43:36;14.00;99.90
1800;DHT22;919;48.274;12.292;2022-10-17T08:46:09;14.10;99.90
1800;DHT22;919;48.274;12.292;2022-10-17T08:48:39;14.20;99.90
1800;DHT22;919;48.274;12.292;2022-10-17T08:51:12;14.10;99.90
1800;DHT22;919;48.274;12.292;2022-10-17T08:53:46;14.10;99.90
1800;DHT22;919;48.274;12.292;2022-10-17T08:56:17;14.10;99.90
1800;DHT22;919;48.274;12.292;2022-10-17T08:58:44;14.20;99.90
1800;DHT22;919;48.274;12.292;2022-10-17T09:01:31;14.20;99.90
1800;DHT22;919;48.274;12.292;2022-10-17T09:04:27;14.40;99.90
1800;DHT22;919;48.274;12.292;2022-10-17T09:07:04;14.60;99.90
1800;DHT22;919;48.274;12.292;2022-10-17T09:09:39;14.60;99.90
1800;DHT22;919;48.274;12.292;2022-10-17T09:12:16;14.70;99.90
1800;DHT22;919;48.274;12.292;2022-10-17T09:17:54;14.60;99.90
1800;DHT22;919;48.274;12.292;2022-10-17T09:20:25;14.60;99.90
1800;DHT22;919;48.274;12.292;2022-10-17T09:22:56;14.60;99.90
1800;DHT22;919;48.274;12.292;2022-10-17T09:25:25;14.70;99.90
1800;DHT22;919;48.274;12.292;2022-10-17T09:27:55;15.00;99.90
1800;DHT22;919;48.274;12.292;2022-10-17T09:30:45;15.20;99.90
1800;DHT22;919;48.274;12.292;2022-10-17T09:33:14;15.20;99.90
1800;DHT22;919;48.274;12.292;2022-10-17T09:35:42;15.20;99.90
1800;DHT22;919;48.274;12.292;2022-10-17T09:38:20;15.20;99.90
1800;DHT22;919;48.274;12.292;2022-10-17T09:40:51;15.20;99.90
1800;DHT22;919;48.274;12.292;2022-10-17T09:43:20;15.20;99.90
1800;DHT22;919;48.274;12.292;2022-10-17T09:45:54;15.30;99.90
1800;DHT22;919;48.274;12.292;2022-10-17T09:48:30;15.70;99.90
1800;DHT22;919;48.274;12.292;2022-10-17T09:50:59;16.00;99.90
1800;DHT22;919;48.274;12.292;2022-10-17T09:53:29;16.30;99.90
1800;DHT22;919;48.274;12.292;2022-10-17T09:56:01;16.60;99.90
1800;DHT22;919;48.274;12.292;2022-10-17T09:58:39;16.80;99.90
1800;DHT22;919;48.274;12.292;2022-10-17T10:01:20;16.80;99.90
1800;DHT22;919;48.274;12.292;2022-10-17T10:04:08;16.40;99.90
1800;DHT22;919;48.274;12.292;2022-10-17T10:06:35;16.50;99.90
1800;DHT22;919;48.274;12.292;2022-10-17T10:09:03;16.50;99.90
1800;DHT22;919;48.274;12.292;2022-10-17T10:11:45;16.60;99.90
1800;DHT22;919;48.274;12.292;2022-10-17T10:14:20;16.70;99.90
1800;DHT22;919;48.274;12.292;2022-10-17T10:16:49;17.10;99.90
1800;DHT22;919;48.274;12.292;2022-10-17T10:19:28;17.30;99.90
1800;DHT22;919;48.274;12.292;2022-10-17T10:21:57;17.70;99.90
1800;DHT22;919;48.274;12.292;2022-10-17T10:24:24;17.80;99.90
1800;DHT22;919;48.274;12.292;2022-10-17T10:26:53;18.00;99.90
1800;DHT22;919;48.274;12.292;2022-10-17T10:29:25;18.10;99.90
1800;DHT22;919;48.274;12.292;2022-10-17T10:31:55;18.20;99.90
1800;DHT22;919;48.274;12.292;2022-10-17T10:34:26;18.40;99.90
1800;DHT22;919;48.274;12.292;2022-10-17T10:37:00;18.30;99.90
1800;DHT22;919;48.274;12.292;2022-10-17T10:39:32;18.40;99.90
1800;DHT22;919;48.274;12.292;2022-10-17T10:42:01;18.30;99.90
1800;DHT22;919;48.274;12.292;2022-10-17T10:44:30;18.40;99.90
1800;DHT22;919;48.274;12.292;2022-10-17T10:47:25;18.40;99.90
1800;DHT22;919;48.274;12.292;2022-10-17T10:50:08;18.50;99.90
1800;DHT22;919;48.274;12.292;2022-10-17T10:52:44;18.50;99.90
1800;DHT22;919;48.274;12.292;2022-10-17T10:55:19;18.50;99.90
1800;DHT22;919;48.274;12.292;2022-10-17T10:57:50;18.50;99.90
1800;DHT22;919;48.274;12.292;2022-10-17T11:00:21;18.30;99.90
1800;DHT22;919;48.274;12.292;2022-10-17T11:02:57;18.30;99.90
1800;DHT22;919;48.274;12.292;2022-10-17T11:05:36;18.40;99.90
1800;DHT22;919;48.274;12.292;2022-10-17T11:08:06;18.60;99.90
1800;DHT22;919;48.274;12.292;2022-10-17T11:10:40;18.70;99.90
1800;DHT22;919;48.274;12.292;2022-10-17T11:13:11;18.90;99.90
1800;DHT22;919;48.274;12.292;2022-10-17T11:15:42;19.20;99.90
1800;DHT22;919;48.274;12.292;2022-10-17T11:18:15;19.60;99.90
1800;DHT22;919;48.274;12.292;2022-10-17T11:20:50;19.90;99.90
1800;DHT22;919;48.274;12.292;2022-10-17T11:23:23;20.10;99.90
1800;DHT22;919;48.274;12.292;2022-10-17T11:25:53;20.20;99.90
1800;DHT22;919;48.274;12.292;2022-10-17T11:28:23;20.20;99.90
1800;DHT22;919;48.274;12.292;2022-10-17T11:30:53;20.40;99.90
1800;DHT22;919;48.274;12.292;2022-10-17T11:33:26;20.50;99.90
1800;DHT22;919;48.274;12.292;2022-10-17T11:36:00;20.30;99.90
1800;DHT22;919;48.274;12.292;2022-10-17T11:38:35;20.30;99.90
1800;DHT22;919;48.274;12.292;2022-10-17T11:41:05;20.30;99.90
1800;DHT22;919;48.274;12.292;2022-10-17T11:43:36;20.30;99.90
1800;DHT22;919;48.274;12.292;2022-10-17T11:46:09;20.20;99.90
1800;DHT22;919;48.274;12.292;2022-10-17T11:48:40;20.40;99.90
1800;DHT22;919;48.274;12.292;2022-10-17T11:51:12;20.50;99.90
1800;DHT22;919;48.274;12.292;2022-10-17T11:53:46;20.60;99.90
1800;DHT22;919;48.274;12.292;2022-10-17T11:56:20;20.70;99.90
1800;DHT22;919;48.274;12.292;2022-10-17T11:58:58;20.80;99.90
1800;DHT22;919;48.274;12.292;2022-10-17T12:01:33;20.90;99.90
1800;DHT22;919;48.274;12.292;2022-10-17T12:04:11;20.90;99.90
1800;DHT22;919;48.274;12.292;2022-10-17T12:06:53;21.00;99.90
1800;DHT22;919;48.274;12.292;2022-10-17T12:09:25;21.10;99.90
1800;DHT22;919;48.274;12.292;2022-10-17T12:11:56;21.20;99.90
1800;DHT22;919;48.274;12.292;2022-10-17T12:14:38;21.20;99.90
1800;DHT22;919;48.274;12.292;2022-10-17T12:17:22;21.20;99.90
1800;DHT22;919;48.274;12.292;2022-10-17T12:19:50;21.20;99.90
1800;DHT22;919;48.274;12.292;2022-10-17T12:22:20;21.10;99.90
1800;DHT22;919;48.274;12.292;2022-10-17T12:24:56;21.40;99.90
1800;DHT22;919;48.274;12.292;2022-10-17T12:30:17;21.70;99.90
1800;DHT22;919;48.274;12.292;2022-10-17T12:33:04;21.80;99.90
1800;DHT22;919;48.274;12.292;2022-10-17T12:35:33;22.00;99.90
1800;DHT22;919;48.274;12.292;2022-10-17T12:41:05;22.00;99.90
1800;DHT22;919;48.274;12.292;2022-10-17T12:43:50;21.80;99.90
1800;DHT22;919;48.274;12.292;2022-10-17T12:46:43;21.80;99.90
1800;DHT22;919;48.274;12.292;2022-10-17T12:49:36;21.80;99.90
1800;DHT22;919;48.274;12.292;2022-10-17T12:54:58;21.80;99.90
1800;DHT22;919;48.274;12.292;2022-10-17T12:57:33;21.90;99.90
1800;DHT22;919;48.274;12.292;2022-10-17T13:00:05;21.90;99.90
1800;DHT22;919;48.274;12.292;2022-10-17T13:02:38;21.80;99.90
1800;DHT22;919;48.274;12.292;2022-10-17T13:05:10;21.90;99.90
1800;DHT22;919;48.274;12.292;2022-10-17T13:07:40;22.10;99.90
1800;DHT22;919;48.274;12.292;2022-10-17T13:10:18;22.20;99.90
1800;DHT22;919;48.274;12.292;2022-10-17T13:12:46;22.20;99.90
1800;DHT22;919;48.274;12.292;2022-10-17T13:15:16;22.20;99.90
1800;DHT22;919;48.274;12.292;2022-10-17T13:17:44;22.20;99.90
1800;DHT22;919;48.274;12.292;2022-10-17T13:20:18;22.20;99.90
1800;DHT22;919;48.274;12.292;2022-10-17T13:22:45;22.20;99.90
1800;DHT22;919;48.274;12.292;2022-10-17T13:25:15;22.30;99.90
1800;DHT22;919;48.274;12.292;2022-10-17T13:27:44;22.30;99.90
1800;DHT22;919;48.274;12.292;2022-10-17T13:30:23;22.30;99.90
1800;DHT22;919;48.274;12.292;2022-10-17T13:32:51;22.40;99.90
1800;DHT22;919;48.274;12.292;2022-10-17T13:35:23;22.40;99.90
1800;DHT22;919;48.274;12.292;2022-10-17T13:37:51;22.30;99.90
1800;DHT22;919;48.274;12.292;2022-10-17T13:40:22;22.10;99.90
1800;DHT22;919;48.274;12.292;2022-10-17T13:42:51;22.00;99.90
1800;DHT22;919;48.274;12.292;2022-10-17T13:45:25;21.90;99.90
1800;DHT22;919;48.274;12.292;2022-10-17T13:47:52;21.90;99.90
1800;DHT22;919;48.274;12.292;2022-10-17T13:50:24;22.00;99.90
1800;DHT22;919;48.274;12.292;2022-10-17T13:53:13;22.20;99.90
1800;DHT22;919;48.274;12.292;2022-10-17T13:55:50;22.30;99.90
1800;DHT22;919;48.274;12.292;2022-10-17T13:58:18;22.40;99.90
1800;DHT22;919;48.274;12.292;2022-10-17T14:00:46;22.50;99.90
1800;DHT22;919;48.274;12.292;2022-10-17T14:03:15;22.50;99.90
1800;DHT22;919;48.274;12.292;2022-10-17T14:06:03;22.50;99.90
1800;DHT22;919;48.274;12.292;2022-10-17T14:08:32;22.50;99.90
1800;DHT22;919;48.274;12.292;2022-10-17T14:10:59;22.50;99.90
1800;DHT22;919;48.274;12.292;2022-10-17T14:13:29;22.60;99.90
1800;DHT22;919;48.274;12.292;2022-10-17T14:15:59;22.70;99.90
1800;DHT22;919;48.274;12.292;2022-10-17T14:18:28;22.70;99.90
1800;DHT22;919;48.274;12.292;2022-10-17T14:20:56;22.60;99.90
1800;DHT22;919;48.274;12.292;2022-10-17T14:23:31;22.50;99.90
1800;DHT22;919;48.274;12.292;2022-10-17T14:26:12;22.50;99.90
1800;DHT22;919;48.274;12.292;2022-10-17T14:28:43;22.40;99.90
1800;DHT22;919;48.274;12.292;2022-10-17T14:31:16;22.30;99.90
1800;DHT22;919;48.274;12.292;2022-10-17T14:33:47;22.30;99.90
1800;DHT22;919;48.274;12.292;2022-10-17T14:36:14;22.20;99.90
1800;DHT22;919;48.274;12.292;2022-10-17T14:38:45;22.20;99.90
1800;DHT22;919;48.274;12.292;2022-10-17T14:41:15;22.10;99.90
1800;DHT22;919;48.274;12.292;2022-10-17T14:43:52;22.10;99.90
1800;DHT22;919;48.274;12.292;2022-10-17T14:46:19;22.00;99.90
1800;DHT22;919;48.274;12.292;2022-10-17T14:48:51;21.90;99.90
1800;DHT22;919;48.274;12.292;2022-10-17T14:51:19;21.90;99.90
1800;DHT22;919;48.274;12.292;2022-10-17T14:54:00;21.80;99.90
1800;DHT22;919;48.274;12.292;2022-10-17T14:56:34;21.80;99.90
1800;DHT22;919;48.274;12.292;2022-10-17T14:59:02;21.70;99.90
1800;DHT22;919;48.274;12.292;2022-10-17T15:01:31;21.70;99.90
1800;DHT22;919;48.274;12.292;2022-10-17T15:03:57;21.60;99.90
1800;DHT22;919;48.274;12.292;2022-10-17T15:06:28;21.60;99.90
1800;DHT22;919;48.274;12.292;2022-10-17T15:08:55;21.50;99.90
1800;DHT22;919;48.274;12.292;2022-10-17T15:11:22;21.50;99.90
1800;DHT22;919;48.274;12.292;2022-10-17T15:13:49;21.50;99.90
1800;DHT22;919;48.274;12.292;2022-10-17T15:16:19;21.40;99.90
1800;DHT22;919;48.274;12.292;2022-10-17T15:18:46;21.40;99.90
1800;DHT22;919;48.274;12.292;2022-10-17T15:21:15;21.30;99.90
1800;DHT22;919;48.274;12.292;2022-10-17T15:23:42;21.20;99.90
1800;DHT22;919;48.274;12.292;2022-10-17T15:26:13;21.10;99.90
1800;DHT22;919;48.274;12.292;2022-10-17T15:28:41;21.00;99.90
1800;DHT22;919;48.274;12.292;2022-10-17T15:31:10;21.00;99.90
1800;DHT22;919;48.274;12.292;2022-10-17T15:33:39;21.10;99.90
1800;DHT22;919;48.274;12.292;2022-10-17T15:36:17;21.00;99.90
1800;DHT22;919;48.274;12.292;2022-10-17T15:38:44;20.90;99.90
1800;DHT22;919;48.274;12.292;2022-10-17T15:41:11;20.60;99.90
1800;DHT22;919;48.274;12.292;2022-10-17T15:43:37;20.50;99.90
1800;DHT22;919;48.274;12.292;2022-10-17T15:46:09;20.20;99.90
1800;DHT22;919;48.274;12.292;2022-10-17T15:48:38;20.00;99.90
1800;DHT22;919;48.274;12.292;2022-10-17T15:51:05;19.90;99.90
1800;DHT22;919;48.274;12.292;2022-10-17T15:53:32;19.60;99.90
1800;DHT22;919;48.274;12.292;2022-10-17T15:55:59;19.40;99.90
1800;DHT22;919;48.274;12.292;2022-10-17T15:58:32;19.20;99.90
1800;DHT22;919;48.274;12.292;2022-10-17T16:01:00;18.90;99.90
1800;DHT22;919;48.274;12.292;2022-10-17T16:03:26;18.80;99.90
1800;DHT22;919;48.274;12.292;2022-10-17T16:05:56;18.60;99.90
1800;DHT22;919;48.274;12.292;2022-10-17T16:08:23;18.40;99.90
1800;DHT22;919;48.274;12.292;2022-10-17T16:10:50;18.20;99.90
1800;DHT22;919;48.274;12.292;2022-10-17T16:13:18;18.10;99.90
1800;DHT22;919;48.274;12.292;2022-10-17T16:15:46;17.90;99.90
1800;DHT22;919;48.274;12.292;2022-10-17T16:18:13;17.70;99.90
1800;DHT22;919;48.274;12.292;2022-10-17T16:20:40;17.60;99.90
1800;DHT22;919;48.274;12.292;2022-10-17T16:23:10;17.50;99.90
1800;DHT22;919;48.274;12.292;2022-10-17T16:25:37;17.30;99.90
1800;DHT22;919;48.274;12.292;2022-10-17T16:28:05;17.20;99.90
1800;DHT22;919;48.274;12.292;2022-10-17T16:30:36;17.00;99.90
1800;DHT22;919;48.274;12.292;2022-10-17T16:33:07;16.80;99.90
1800;DHT22;919;48.274;12.292;2022-10-17T16:35:34;16.60;99.90